Roza A — TCRB7 — position and weather

sailwx.info

Track history (hours):
 
Tides and Currents Weather Stations Pressure Air Temp Water Temp Dewpoint Dewpoint Depression Visibility Wind Speed Wind Dir Waves Ship Positions

Roza A

Last reported at 2015-May-27 16:33 UTC. Time now 2015-May-28 22:18 UTC.
Position N 42°54' E 005°34'.

Length 169 m; draft 9 m.

Type: Ship (hazmat cat A). MMSI: 271001057.

Date/timePositionNaut miles runAvg speedWind from/ knotsBaromVisibWave heightAir tempDewpointWater temp
2015-May-27 16:33N 42°54' E 005°34'1413.9
2015-May-27 15:33N 43°01' E 005°18'1414.2
2015-May-27 14:34N 43°09' E 005°02'1313.4
2015-May-27 13:33N 43°22' E 004°57'5 4.9
2015-May-27 12:31N 43°25' E 004°51'0 0.0
2015-May-27 11:31N 43°24' E 004°51'0 0.0
2015-May-27 10:28N 43°24' E 004°51'0 0.0
2015-May-27 09:31N 43°24' E 004°51'0 0.0
2015-May-27 08:31N 43°24' E 004°51'0 0.0
2015-May-27 07:31N 43°24' E 004°51'0 0.0
2015-May-27 06:28N 43°24' E 004°51'0 0.0
2015-May-27 05:31N 43°25' E 004°51'0 0.0
2015-May-27 04:31N 43°24' E 004°51'0 0.0
2015-May-27 03:31N 43°24' E 004°51'0 0.0
2015-May-27 02:31N 43°24' E 004°51'0 0.0
2015-May-27 01:31N 43°24' E 004°51'0 0.0
2015-May-27 00:28N 43°24' E 004°51'0 0.0
2015-May-26 23:31N 43°24' E 004°51'0 0.0
2015-May-26 22:31N 43°24' E 004°51'0 0.0
2015-May-26 21:31N 43°24' E 004°51'0 0.0
2015-May-26 20:31N 43°24' E 004°51'0 0.0
2015-May-26 19:31N 43°24' E 004°51'0 0.0
2015-May-26 18:31N 43°24' E 004°51'0 0.0
2015-May-26 17:31N 43°24' E 004°51'0 0.0
2015-May-26 16:28N 43°24' E 004°51'0 0.0
2015-May-26 15:31N 43°24' E 004°51'0 0.0
2015-May-26 14:31N 43°24' E 004°51'0 0.0
2015-May-26 13:31N 43°24' E 004°51'0 0.0
2015-May-26 12:31N 43°25' E 004°51'0 0.1
2015-May-26 11:31N 43°24' E 004°51'0 0.0
2015-May-26 10:31N 43°24' E 004°51'0 0.0
2015-May-26 09:31N 43°24' E 004°51'0 0.0
2015-May-26 08:31N 43°24' E 004°51'0 0.0
2015-May-26 07:31N 43°24' E 004°51'0 0.0
2015-May-26 06:31N 43°24' E 004°51'0 0.0
2015-May-26 05:31N 43°25' E 004°51'0 0.0
2015-May-26 04:31N 43°24' E 004°51'0 0.0
2015-May-26 03:33N 43°25' E 004°51'6 6.2
2015-May-26 02:34N 43°21' E 004°58'10 9.8
2015-May-26 01:33N 43°12' E 005°02'17210.7
2015-May-25 09:33N 41°17' E 002°11'4 0.3
2015-May-24 18:27N 41°21' E 002°10'4012.1
2015-May-24 15:08N 40°48' E 001°41'915.2
2015-May-24 14:31N 40°41' E 001°33'1414.7
2015-May-24 13:33N 40°33' E 001°18'1515.0
2015-May-24 12:33N 40°24' E 001°01'1514.9
2015-May-24 11:33N 40°16' E 000°45'1814.6
2015-May-24 10:19N 40°06' E 000°25'1314.5
2015-May-24 09:26N 39°59' E 000°11'7 0.7
2015-May-23 23:20N 39°58' E 000°02'0 0.1
2015-May-23 22:11N 39°58' E 000°01'3 0.6
2015-May-23 18:13N 39°58' E 000°05'9 3.4
2015-May-23 15:32N 39°50' E 000°08'1514.4
2015-May-23 14:30N 39°37' W 000°03'1414.7
2015-May-23 13:33N 39°27' W 000°15'3 3.3
2015-May-23 12:33N 39°27' W 000°19'0 0.0
2015-May-23 11:28N 39°27' W 000°19'0 0.0
2015-May-23 10:31N 39°27' W 000°19'0 0.0
2015-May-23 09:31N 39°27' W 000°19'0 0.0
2015-May-23 08:31N 39°27' W 000°19'0 0.0
2015-May-23 07:31N 39°27' W 000°19'0 0.0
2015-May-23 06:31N 39°27' W 000°19'0 0.0
2015-May-23 05:31N 39°27' W 000°19'0 0.0
2015-May-23 04:31N 39°27' W 000°19'0 0.0
2015-May-23 03:28N 39°27' W 000°19'0 0.0
2015-May-23 02:31N 39°27' W 000°19'0 0.0
2015-May-23 01:31N 39°27' W 000°19'0 0.0
2015-May-23 00:31N 39°27' W 000°19'0 0.0
2015-May-22 23:31N 39°27' W 000°19'0 0.0
2015-May-22 22:31N 39°27' W 000°19'0 0.0
2015-May-22 21:31N 39°27' W 000°19'0 0.0
2015-May-22 20:31N 39°27' W 000°19'0 0.0
2015-May-22 19:28N 39°27' W 000°19'0 0.4
2015-May-22 18:33N 39°27' W 000°19'5 4.8
2015-May-22 17:34N 39°25' W 000°14'42613.7
2015-May-21 10:32N 38°49' E 008°54'1414.5
2015-May-21 09:33N 38°59' E 009°07'1212.2
2015-May-21 08:34N 39°11' E 009°06'2 2.0
2015-May-21 07:31N 39°13' E 009°05'0 0.0
2015-May-21 06:31N 39°13' E 009°05'0 0.0
2015-May-21 05:31N 39°13' E 009°05'0 0.0
2015-May-21 04:31N 39°13' E 009°05'0 0.0
2015-May-21 03:31N 39°13' E 009°05'0 0.0
2015-May-21 02:31N 39°13' E 009°05'0 0.0
2015-May-21 01:31N 39°13' E 009°05'0 0.0
2015-May-21 00:31N 39°13' E 009°05'0 0.0
2015-May-20 23:31N 39°13' E 009°05'0 0.0
2015-May-20 22:31N 39°13' E 009°05'0 0.0
2015-May-20 21:31N 39°13' E 009°05'0 0.1
2015-May-20 20:31N 39°13' E 009°05'3 2.9
2015-May-20 19:33N 39°10' E 009°05'1 0.5
2015-May-20 18:32N 39°10' E 009°06'0 0.0
2015-May-20 17:32N 39°10' E 009°06'0 0.0
2015-May-20 16:32N 39°10' E 009°06'0 0.1
2015-May-20 15:32N 39°10' E 009°06'0 0.0
2015-May-20 14:32N 39°10' E 009°06'0 0.0
2015-May-20 13:32N 39°10' E 009°06'0 0.0
2015-May-20 12:32N 39°10' E 009°06'0 0.0
2015-May-20 11:32N 39°10' E 009°06'0 0.0
2015-May-20 10:32N 39°10' E 009°06'0 0.0
2015-May-20 09:32N 39°10' E 009°06'0 0.0
2015-May-20 08:32N 39°10' E 009°06'0 0.0
2015-May-20 07:32N 39°10' E 009°06'0 0.0
2015-May-20 06:32N 39°10' E 009°06'0 0.0
2015-May-20 05:32N 39°10' E 009°06'0 0.1
2015-May-20 04:32N 39°10' E 009°05'0 0.1
2015-May-20 03:32N 39°10' E 009°06'0 0.0
2015-May-20 02:32N 39°10' E 009°06'0 0.0
2015-May-20 01:32N 39°10' E 009°06'0 0.0
2015-May-20 00:32N 39°10' E 009°06'0 0.0
2015-May-19 23:32N 39°10' E 009°06'0 0.0
2015-May-19 22:32N 39°10' E 009°06'0 0.0
2015-May-19 21:32N 39°10' E 009°06'0 0.1
2015-May-19 20:32N 39°10' E 009°05'3 3.2
2015-May-19 19:34N 39°08' E 009°07'1312.9
2015-May-19 18:33N 39°00' E 009°21'1312.9
2015-May-19 17:33N 38°53' E 009°35'1312.9
2015-May-19 16:33N 38°47' E 009°49'1313.0
2015-May-19 15:33N 38°40' E 010°03'1312.9
2015-May-19 14:33N 38°33' E 010°17'1313.2
2015-May-19 13:34N 38°26' E 010°31'1313.1
2015-May-19 12:33N 38°19' E 010°46'1313.1
2015-May-19 11:33N 38°12' E 010°60'1313.2
2015-May-19 10:33N 38°05' E 011°14'1713.2
2015-May-19 09:15N 37°56' E 011°32'1012.9
2015-May-19 08:28N 37°50' E 011°43'1213.5
2015-May-19 07:33N 37°43' E 011°56'1313.3
2015-May-19 06:33N 37°35' E 012°09'1313.4
2015-May-19 05:33N 37°27' E 012°23'1313.1
2015-May-19 04:33N 37°20' E 012°37'1413.8
2015-May-19 03:33N 37°12' E 012°51'1413.7
2015-May-19 02:33N 37°07' E 013°07'1514.0
2015-May-19 01:30N 37°01' E 013°24'1314.1
2015-May-19 00:34N 36°56' E 013°39'1414.3
2015-May-18 23:34N 36°51' E 013°56'1414.3
2015-May-18 22:34N 36°45' E 014°12'1414.0
2015-May-18 21:33N 36°40' E 014°29'1413.9
2015-May-18 20:33N 36°36' E 014°45'1814.4
2015-May-18 19:19N 36°32' E 015°07'31014.2
2015-May-17 21:33N 36°23' E 021°31'1414.0
2015-May-17 20:33N 36°23' E 021°49'3314.0
2015-May-17 18:12N 36°22' E 022°30'1014.4
2015-May-17 17:31N 36°23' E 022°42'  
Track history (hours):
 
Tides and Currents Weather Stations Pressure Air Temp Water Temp Dewpoint Dewpoint Depression Visibility Wind Speed Wind Dir Waves Ship Positions

Roza A

Last reported at 2015-May-27 16:33 UTC. Time now 2015-May-28 22:18 UTC.
Position N 42°54' E 005°34'.

Length 169 m; draft 9 m.

Type: Ship (hazmat cat A). MMSI: 271001057.

Date/timePositionNaut miles runAvg speedWind from/ knotsBaromVisibWave heightAir tempDewpointWater temp
2015-May-27 16:33N 42°54' E 005°34'1413.9
2015-May-27 15:33N 43°01' E 005°18'1414.2
2015-May-27 14:34N 43°09' E 005°02'1313.4
2015-May-27 13:33N 43°22' E 004°57'5 4.9
2015-May-27 12:31N 43°25' E 004°51'0 0.0
2015-May-27 11:31N 43°24' E 004°51'0 0.0
2015-May-27 10:28N 43°24' E 004°51'0 0.0
2015-May-27 09:31N 43°24' E 004°51'0 0.0
2015-May-27 08:31N 43°24' E 004°51'0 0.0
2015-May-27 07:31N 43°24' E 004°51'0 0.0
2015-May-27 06:28N 43°24' E 004°51'0 0.0
2015-May-27 05:31N 43°25' E 004°51'0 0.0
2015-May-27 04:31N 43°24' E 004°51'0 0.0
2015-May-27 03:31N 43°24' E 004°51'0 0.0
2015-May-27 02:31N 43°24' E 004°51'0 0.0
2015-May-27 01:31N 43°24' E 004°51'0 0.0
2015-May-27 00:28N 43°24' E 004°51'0 0.0
2015-May-26 23:31N 43°24' E 004°51'0 0.0
2015-May-26 22:31N 43°24' E 004°51'0 0.0
2015-May-26 21:31N 43°24' E 004°51'0 0.0
2015-May-26 20:31N 43°24' E 004°51'0 0.0
2015-May-26 19:31N 43°24' E 004°51'0 0.0
2015-May-26 18:31N 43°24' E 004°51'0 0.0
2015-May-26 17:31N 43°24' E 004°51'0 0.0
2015-May-26 16:28N 43°24' E 004°51'0 0.0
2015-May-26 15:31N 43°24' E 004°51'0 0.0
2015-May-26 14:31N 43°24' E 004°51'0 0.0
2015-May-26 13:31N 43°24' E 004°51'0 0.0
2015-May-26 12:31N 43°25' E 004°51'0 0.1
2015-May-26 11:31N 43°24' E 004°51'0 0.0
2015-May-26 10:31N 43°24' E 004°51'0 0.0
2015-May-26 09:31N 43°24' E 004°51'0 0.0
2015-May-26 08:31N 43°24' E 004°51'0 0.0
2015-May-26 07:31N 43°24' E 004°51'0 0.0
2015-May-26 06:31N 43°24' E 004°51'0 0.0
2015-May-26 05:31N 43°25' E 004°51'0 0.0
2015-May-26 04:31N 43°24' E 004°51'0 0.0
2015-May-26 03:33N 43°25' E 004°51'6 6.2
2015-May-26 02:34N 43°21' E 004°58'10 9.8
2015-May-26 01:33N 43°12' E 005°02'17210.7
2015-May-25 09:33N 41°17' E 002°11'4 0.3
2015-May-24 18:27N 41°21' E 002°10'4012.1
2015-May-24 15:08N 40°48' E 001°41'915.2
2015-May-24 14:31N 40°41' E 001°33'1414.7
2015-May-24 13:33N 40°33' E 001°18'1515.0
2015-May-24 12:33N 40°24' E 001°01'1514.9
2015-May-24 11:33N 40°16' E 000°45'1814.6
2015-May-24 10:19N 40°06' E 000°25'1314.5
2015-May-24 09:26N 39°59' E 000°11'7 0.7
2015-May-23 23:20N 39°58' E 000°02'0 0.1
2015-May-23 22:11N 39°58' E 000°01'3 0.6
2015-May-23 18:13N 39°58' E 000°05'9 3.4
2015-May-23 15:32N 39°50' E 000°08'1514.4
2015-May-23 14:30N 39°37' W 000°03'1414.7
2015-May-23 13:33N 39°27' W 000°15'3 3.3
2015-May-23 12:33N 39°27' W 000°19'0 0.0
2015-May-23 11:28N 39°27' W 000°19'0 0.0
2015-May-23 10:31N 39°27' W 000°19'0 0.0
2015-May-23 09:31N 39°27' W 000°19'0 0.0
2015-May-23 08:31N 39°27' W 000°19'0 0.0
2015-May-23 07:31N 39°27' W 000°19'0 0.0
2015-May-23 06:31N 39°27' W 000°19'0 0.0
2015-May-23 05:31N 39°27' W 000°19'0 0.0
2015-May-23 04:31N 39°27' W 000°19'0 0.0
2015-May-23 03:28N 39°27' W 000°19'0 0.0
2015-May-23 02:31N 39°27' W 000°19'0 0.0
2015-May-23 01:31N 39°27' W 000°19'0 0.0
2015-May-23 00:31N 39°27' W 000°19'0 0.0
2015-May-22 23:31N 39°27' W 000°19'0 0.0
2015-May-22 22:31N 39°27' W 000°19'0 0.0
2015-May-22 21:31N 39°27' W 000°19'0 0.0
2015-May-22 20:31N 39°27' W 000°19'0 0.0
2015-May-22 19:28N 39°27' W 000°19'0 0.4
2015-May-22 18:33N 39°27' W 000°19'5 4.8
2015-May-22 17:34N 39°25' W 000°14'42613.7
2015-May-21 10:32N 38°49' E 008°54'1414.5
2015-May-21 09:33N 38°59' E 009°07'1212.2
2015-May-21 08:34N 39°11' E 009°06'2 2.0
2015-May-21 07:31N 39°13' E 009°05'0 0.0
2015-May-21 06:31N 39°13' E 009°05'0 0.0
2015-May-21 05:31N 39°13' E 009°05'0 0.0
2015-May-21 04:31N 39°13' E 009°05'0 0.0
2015-May-21 03:31N 39°13' E 009°05'0 0.0
2015-May-21 02:31N 39°13' E 009°05'0 0.0
2015-May-21 01:31N 39°13' E 009°05'0 0.0
2015-May-21 00:31N 39°13' E 009°05'0 0.0
2015-May-20 23:31N 39°13' E 009°05'0 0.0
2015-May-20 22:31N 39°13' E 009°05'0 0.0
2015-May-20 21:31N 39°13' E 009°05'0 0.1
2015-May-20 20:31N 39°13' E 009°05'3 2.9
2015-May-20 19:33N 39°10' E 009°05'1 0.5
2015-May-20 18:32N 39°10' E 009°06'0 0.0
2015-May-20 17:32N 39°10' E 009°06'0 0.0
2015-May-20 16:32N 39°10' E 009°06'0 0.1
2015-May-20 15:32N 39°10' E 009°06'0 0.0
2015-May-20 14:32N 39°10' E 009°06'0 0.0
2015-May-20 13:32N 39°10' E 009°06'0 0.0
2015-May-20 12:32N 39°10' E 009°06'0 0.0
2015-May-20 11:32N 39°10' E 009°06'0 0.0
2015-May-20 10:32N 39°10' E 009°06'0 0.0
2015-May-20 09:32N 39°10' E 009°06'0 0.0
2015-May-20 08:32N 39°10' E 009°06'0 0.0
2015-May-20 07:32N 39°10' E 009°06'0 0.0
2015-May-20 06:32N 39°10' E 009°06'0 0.0
2015-May-20 05:32N 39°10' E 009°06'0 0.1
2015-May-20 04:32N 39°10' E 009°05'0 0.1
2015-May-20 03:32N 39°10' E 009°06'0 0.0
2015-May-20 02:32N 39°10' E 009°06'0 0.0
2015-May-20 01:32N 39°10' E 009°06'0 0.0
2015-May-20 00:32N 39°10' E 009°06'0 0.0
2015-May-19 23:32N 39°10' E 009°06'0 0.0
2015-May-19 22:32N 39°10' E 009°06'0 0.0
2015-May-19 21:32N 39°10' E 009°06'0 0.1
2015-May-19 20:32N 39°10' E 009°05'3 3.2
2015-May-19 19:34N 39°08' E 009°07'1312.9
2015-May-19 18:33N 39°00' E 009°21'1312.9
2015-May-19 17:33N 38°53' E 009°35'1312.9
2015-May-19 16:33N 38°47' E 009°49'1313.0
2015-May-19 15:33N 38°40' E 010°03'1312.9
2015-May-19 14:33N 38°33' E 010°17'1313.2
2015-May-19 13:34N 38°26' E 010°31'1313.1
2015-May-19 12:33N 38°19' E 010°46'1313.1
2015-May-19 11:33N 38°12' E 010°60'1313.2
2015-May-19 10:33N 38°05' E 011°14'1713.2
2015-May-19 09:15N 37°56' E 011°32'1012.9
2015-May-19 08:28N 37°50' E 011°43'1213.5
2015-May-19 07:33N 37°43' E 011°56'1313.3
2015-May-19 06:33N 37°35' E 012°09'1313.4
2015-May-19 05:33N 37°27' E 012°23'1313.1
2015-May-19 04:33N 37°20' E 012°37'1413.8
2015-May-19 03:33N 37°12' E 012°51'1413.7
2015-May-19 02:33N 37°07' E 013°07'1514.0
2015-May-19 01:30N 37°01' E 013°24'1314.1
2015-May-19 00:34N 36°56' E 013°39'1414.3
2015-May-18 23:34N 36°51' E 013°56'1414.3
2015-May-18 22:34N 36°45' E 014°12'1414.0
2015-May-18 21:33N 36°40' E 014°29'1413.9
2015-May-18 20:33N 36°36' E 014°45'1814.4
2015-May-18 19:19N 36°32' E 015°07'31014.2
2015-May-17 21:33N 36°23' E 021°31'1414.0
2015-May-17 20:33N 36°23' E 021°49'3314.0
2015-May-17 18:12N 36°22' E 022°30'1014.4
2015-May-17 17:31N 36°23' E 022°42'  

Dump ship's entire track history